Flight Track Log - Related Links

Times and Time Zones

All times are in EDT time to prevent confusion due to time zone crossing. See the RAX131 flight status page for this flight to view local times or setup timezone preferences in your user account.

Time Position Orientation Groundspeed Altitude Reporting Facility
EDT Latitude Longitude Course Direction KTS MPH feet Rate Location/Type
Tue 07:33:41 AM 42.6667 -83.3478 85° East 186 214 3,400  Level Cleveland Center
Tue 07:34:19 AM 42.6700 -83.2997 85° East 204 235 5,100 2,571 Climbing Cleveland Center
Tue 07:35:19 AM 42.6739 -83.2153 86° East 234 269 7,600 2,450 Climbing Cleveland Center
Tue 07:36:19 AM 42.6656 -83.1217 97° East 263 303 10,000 2,450 Climbing Cleveland Center
Tue 07:37:19 AM 42.5947 -83.1189 178° South 279 321 12,500 1,891 Climbing Cleveland Center
Tue 07:37:51 AM 42.5569 -83.1342 197° South 281 323 12,900 500 Climbing Cleveland Center
Tue 07:39:19 AM 42.4225 -83.1850 196° South 349 402 13,500 1,054 Climbing Cleveland Center
Tue 07:40:19 AM 42.3531 -83.2131 197° South 349 402 15,500 2,000 Climbing Cleveland Center
Tue 07:41:19 AM 42.2581 -83.2569 199° South 336 387 17,500 1,650 Climbing Cleveland Center
Tue 07:42:19 AM 42.1694 -83.3036 201° Southwest 334 384 18,800 1,400 Climbing Cleveland Center
Tue 07:43:19 AM 42.0831 -83.3389 197° South 329 379 20,300 1,300 Climbing Cleveland Center
Tue 07:44:19 AM 41.9947 -83.3772 198° South 334 384 21,400 850 Climbing Cleveland Center
Tue 07:45:19 AM 41.8956 -83.4231 199° South 334 384 22,000 300 Climbing Cleveland Center
Tue 07:46:19 AM 41.8114 -83.4583 197° South 344 396 22,000  Level Cleveland Center
Tue 07:47:19 AM 41.7186 -83.5014 199° South 350 403 22,000  Level Cleveland Center
Tue 07:48:19 AM 41.6278 -83.5389 197° South 350 403 22,000  Level Cleveland Center
Tue 07:49:19 AM 41.5414 -83.5794 199° South 345 397 22,000  Level Cleveland Center
Tue 07:50:19 AM 41.4506 -83.6194 198° South 345 397 22,000  Level Cleveland Center
Tue 07:51:19 AM 41.3619 -83.6597 199° South 345 397 22,000  Level Cleveland Center
Tue 07:53:17 AM 41.1978 -83.7372 200° South 331 381 22,000  Level Indianapolis Center
Tue 07:54:19 AM 41.1106 -83.7764 199° South 329 379 22,000  Level Indianapolis Center
Tue 07:55:20 AM 41.0133 -83.8192 198° South 331 381 22,000  Level Indianapolis Center
Tue 07:56:21 AM 40.9253 -83.8578 198° South 329 379 22,000  Level Indianapolis Center
Tue 07:57:23 AM 40.8381 -83.8972 199° South 330 380 22,000  Level Indianapolis Center
Tue 07:58:24 AM 40.7497 -83.9364 199° South 331 381 22,000  Level Indianapolis Center
Tue 07:59:25 AM 40.6617 -83.9761 199° South 332 382 22,000 -341 Level Indianapolis Center
Tue 08:00:27 AM 40.5725 -84.0158 199° South 334 384 21,300 -1,174 Descending Indianapolis Center
Tue 08:00:57 AM 40.5164 -84.0422 200° South 356 410 20,200 -1,770 Descending Indianapolis Center
Tue 08:01:28 AM 40.4744 -84.0597 198° South 367 422 19,500 -1,370 Descending Indianapolis Center
Tue 08:02:29 AM 40.3678 -84.1022 197° South 394 453 18,100 -1,317 Descending Indianapolis Center
Tue 08:03:31 AM 40.2547 -84.1525 199° South 367 422 16,800 -1,659 Descending Indianapolis Center
Tue 08:04:32 AM 40.1647 -84.1753 191° South 332 382 14,700 -2,115 Descending Indianapolis Center
Tue 08:05:33 AM 40.0719 -84.1878 186° South 334 384 12,500 -1,951 Descending Indianapolis Center
Tue 08:06:35 AM 39.9892 -84.1950 184° South 302 348 10,700 -1,756 Descending Indianapolis Center
Tue 08:07:36 AM 39.9158 -84.2014 184° South 272 313 8,900 -2,015 Descending Indianapolis Center
Tue 08:08:49 AM 39.8275 -84.2100 184° South 254 292 6,200 -2,146 Descending Indianapolis Center
Tue 08:09:39 AM 39.7747 -84.2144 184° South 255 293 4,500 -1,514 Descending Indianapolis Center
Tue 08:10:40 AM 39.7069 -84.2214 185° South 250 288 3,400 -682 Descending Indianapolis Center
Tue 08:11:51 AM 39.6428 -84.2453 196° South 163 188 3,000 -439 Descending Indianapolis Center
Tue 08:12:43 AM 39.6147 -84.2683 212° Southwest 186 214 2,500 -621 Descending Indianapolis Center
Tue 08:13:47 AM 39.5750 -84.3283 229° Southwest 181 208 1,800 -600 Descending Indianapolis Center
Tue 08:14:53 AM 39.5450 -84.3719 228° Southwest 163 188 1,200 -545 Descending Indianapolis Center
Tue 08:16:00 AM 39.5167 -84.3833 194° South  Level FlightAware Approximate
Tue 08:23:00 AM 39.5318 -84.3964 194° South  Level Estimated
Tue 08:24:00 AM 39.5318 -84.3964 194° South  Level Estimated

Login

Don't have an account? Register now (free) for customized features, flight alerts, and more!